Time;durP1;ratioP1;P1;durP2;ratioP2;P2;SDS_P1;SDS_P2;PMS_P1;PMS_P2;Temp;Humidity;BMP_temperature;BMP_pressure;BME280_temperature;BME280_humidity;BME280_pressure;Samples;Min_cycle;Max_cycle;Signal;HPM_P1;HPM_P2
2023/12/26 00:01:37;;;;;;;2.70;2.50;;;7.60;43.70;;;;;;5033138;28;20218;-70
2023/12/26 00:04:04;;;;;;;3.27;2.20;;;7.50;43.60;;;;;;5032908;28;20711;-69
2023/12/26 00:06:30;;;;;;;3.13;2.63;;;7.50;43.90;;;;;;5032228;28;20581;-69
2023/12/26 00:08:57;;;;;;;2.80;2.57;;;7.50;43.90;;;;;;5031492;28;20217;-71
2023/12/26 00:11:24;;;;;;;3.10;2.37;;;7.40;44.40;;;;;;5032712;28;20251;-70
2023/12/26 00:13:51;;;;;;;2.80;2.30;;;7.30;44.50;;;;;;5032728;28;20205;-69
2023/12/26 00:16:17;;;;;;;2.83;2.63;;;7.30;44.80;;;;;;5031484;28;20275;-69
2023/12/26 00:18:44;;;;;;;3.03;2.67;;;7.30;44.80;;;;;;5030994;28;20214;-71
2023/12/26 00:21:10;;;;;;;3.43;2.70;;;7.30;44.80;;;;;;5024457;28;20211;-70
2023/12/26 00:23:37;;;;;;;2.97;2.77;;;7.20;44.40;;;;;;5032814;28;20244;-70
2023/12/26 00:26:04;;;;;;;2.80;2.60;;;7.30;44.50;;;;;;5027911;28;20313;-68
2023/12/26 00:28:31;;;;;;;4.17;3.10;;;7.20;44.70;;;;;;5031886;28;20210;-70
2023/12/26 00:30:57;;;;;;;3.00;2.70;;;7.20;44.70;;;;;;5036184;28;20279;-70
2023/12/26 00:33:24;;;;;;;3.10;2.80;;;7.20;45.20;;;;;;5031073;28;20580;-69
2023/12/26 00:35:50;;;;;;;2.90;2.70;;;7.10;45.00;;;;;;5032258;28;20298;-71
2023/12/26 00:38:18;;;;;;;3.20;2.50;;;7.10;45.10;;;;;;5030365;28;20256;-70
2023/12/26 00:40:45;;;;;;;2.60;2.40;;;7.10;45.20;;;;;;5034760;28;20216;-69
2023/12/26 00:43:11;;;;;;;2.60;2.40;;;7.20;45.50;;;;;;5025745;28;20224;-69
2023/12/26 00:45:38;;;;;;;2.83;2.60;;;7.20;45.60;;;;;;5030807;28;20229;-69
2023/12/26 00:48:04;;;;;;;3.10;2.50;;;7.20;45.50;;;;;;5032045;28;20205;-69
2023/12/26 00:50:31;;;;;;;2.60;2.40;;;7.20;45.70;;;;;;5033885;28;20250;-71
2023/12/26 00:52:58;;;;;;;2.63;2.43;;;7.10;46.00;;;;;;5027756;28;20634;-69
2023/12/26 00:55:25;;;;;;;3.57;2.87;;;7.10;46.10;;;;;;5030168;28;20581;-69
2023/12/26 00:57:52;;;;;;;2.83;2.63;;;7.10;46.20;;;;;;5031827;28;20244;-69
2023/12/26 01:00:18;;;;;;;2.60;2.40;;;7.10;46.80;;;;;;5030734;28;20222;-69
2023/12/26 01:02:45;;;;;;;2.53;2.30;;;7.00;47.50;;;;;;5031988;28;20660;-69
2023/12/26 01:05:12;;;;;;;2.60;2.40;;;7.00;47.50;;;;;;5023661;28;20276;-69
2023/12/26 01:07:38;;;;;;;3.27;2.50;;;7.10;47.60;;;;;;5030204;28;20210;-69
2023/12/26 01:10:05;;;;;;;3.17;2.53;;;7.00;47.80;;;;;;5030213;28;20260;-70
2023/12/26 01:12:32;;;;;;;2.50;2.30;;;7.00;47.90;;;;;;5018891;28;20202;-72
2023/12/26 01:14:59;;;;;;;2.50;2.30;;;7.00;48.40;;;;;;5032908;28;20233;-70
2023/12/26 01:17:25;;;;;;;2.93;2.70;;;7.00;48.60;;;;;;5032211;28;20281;-69
2023/12/26 01:19:52;;;;;;;2.33;2.13;;;6.90;48.80;;;;;;5030984;28;20229;-69
2023/12/26 01:22:18;;;;;;;2.77;2.40;;;6.90;48.90;;;;;;5030608;28;20228;-72
2023/12/26 01:24:45;;;;;;;2.43;2.30;;;6.90;49.10;;;;;;5031119;28;20213;-69
2023/12/26 01:27:12;;;;;;;2.30;2.10;;;6.80;49.70;;;;;;5024024;28;20256;-69
2023/12/26 01:29:38;;;;;;;2.93;2.70;;;6.80;49.90;;;;;;5030617;28;20210;-69
2023/12/26 01:32:05;;;;;;;2.97;2.17;;;6.70;50.40;;;;;;5030873;28;20213;-72
2023/12/26 01:34:32;;;;;;;4.03;2.87;;;6.70;50.40;;;;;;5031556;28;20213;-70
2023/12/26 01:36:58;;;;;;;2.63;2.40;;;6.70;50.50;;;;;;5030750;28;20686;-69
2023/12/26 01:39:27;;;;;;;3.20;2.37;;;6.60;51.10;;;;;;5031486;28;20630;-69
2023/12/26 01:41:54;;;;;;;2.70;2.43;;;6.70;51.50;;;;;;5028940;28;20650;-69
2023/12/26 01:44:21;;;;;;;3.37;2.87;;;6.60;50.90;;;;;;5031033;28;20318;-69
2023/12/26 01:46:47;;;;;;;3.57;2.50;;;6.60;50.90;;;;;;5035369;28;20232;-69
2023/12/26 01:49:14;;;;;;;3.50;3.20;;;6.60;51.30;;;;;;5031323;28;20267;-69
2023/12/26 01:51:42;;;;;;;2.80;2.57;;;6.60;51.40;;;;;;5028734;28;20209;-69
2023/12/26 01:54:08;;;;;;;2.97;2.77;;;6.60;51.70;;;;;;5031300;28;20595;-70
2023/12/26 01:56:35;;;;;;;2.47;2.37;;;6.50;51.60;;;;;;5030501;28;20647;-69
2023/12/26 01:59:02;;;;;;;3.00;2.40;;;6.60;51.90;;;;;;5030032;28;20259;-69
2023/12/26 02:01:28;;;;;;;2.30;2.10;;;6.50;51.60;;;;;;5031005;28;20209;-71
2023/12/26 02:03:55;;;;;;;2.30;2.10;;;6.50;52.00;;;;;;5028988;28;20615;-69
2023/12/26 02:06:22;;;;;;;2.67;2.47;;;6.40;51.90;;;;;;5031035;28;20277;-69
2023/12/26 02:08:49;;;;;;;4.00;2.40;;;6.40;52.40;;;;;;5022277;28;20244;-73
2023/12/26 02:11:15;;;;;;;3.30;2.40;;;6.40;52.70;;;;;;5034482;28;20275;-71
2023/12/26 02:13:42;;;;;;;3.10;2.40;;;6.40;52.70;;;;;;5029735;28;20267;-70
2023/12/26 02:16:08;;;;;;;2.70;2.40;;;6.30;52.90;;;;;;5030948;28;20282;-69
2023/12/26 02:18:35;;;;;;;3.10;2.67;;;6.30;52.90;;;;;;5031344;28;20282;-69
2023/12/26 02:21:01;;;;;;;3.17;2.63;;;6.30;52.90;;;;;;5031424;28;20208;-70
2023/12/26 02:23:28;;;;;;;2.87;2.50;;;6.20;53.10;;;;;;5030221;28;20231;-70
2023/12/26 02:25:55;;;;;;;3.00;2.50;;;6.20;53.10;;;;;;5021835;28;20226;-70
2023/12/26 02:28:21;;;;;;;2.80;2.57;;;6.10;53.50;;;;;;5015893;28;20223;-72
2023/12/26 02:30:48;;;;;;;4.00;2.77;;;6.20;53.10;;;;;;5033073;28;20250;-70
2023/12/26 02:33:14;;;;;;;2.63;2.40;;;6.20;52.70;;;;;;5034139;28;20343;-70
2023/12/26 02:35:41;;;;;;;3.90;2.60;;;6.20;53.10;;;;;;5034620;28;20279;-69
2023/12/26 02:38:08;;;;;;;2.40;2.17;;;6.10;53.20;;;;;;5034614;28;20215;-69
2023/12/26 02:40:34;;;;;;;3.30;2.77;;;6.10;53.20;;;;;;5033946;28;20247;-70
2023/12/26 02:43:01;;;;;;;3.33;2.53;;;6.10;53.10;;;;;;5032348;28;20603;-70
2023/12/26 02:45:27;;;;;;;2.47;2.27;;;6.10;53.40;;;;;;5034112;28;20233;-70
2023/12/26 02:47:54;;;;;;;2.67;2.47;;;6.00;53.60;;;;;;5033982;28;20207;-70
2023/12/26 02:50:20;;;;;;;3.87;2.30;;;6.00;53.50;;;;;;5034366;28;20266;-73
2023/12/26 02:52:47;;;;;;;3.97;2.77;;;6.00;53.60;;;;;;5023990;28;20210;-71
2023/12/26 02:55:14;;;;;;;3.37;2.70;;;6.00;53.60;;;;;;5033345;28;20606;-70
2023/12/26 02:57:40;;;;;;;2.63;2.40;;;5.90;53.40;;;;;;5032504;28;20216;-70
2023/12/26 03:00:07;;;;;;;2.77;2.57;;;5.90;53.40;;;;;;5032961;28;20857;-73
2023/12/26 03:02:34;;;;;;;2.63;2.40;;;5.90;53.20;;;;;;5033218;28;20310;-70
2023/12/26 03:05:00;;;;;;;2.97;2.60;;;5.80;53.70;;;;;;5031521;28;20592;-70
2023/12/26 03:07:27;;;;;;;2.80;2.43;;;5.90;53.40;;;;;;5030824;28;20211;-70
2023/12/26 03:09:53;;;;;;;2.60;2.40;;;5.80;53.50;;;;;;5024563;28;20212;-71
2023/12/26 03:12:20;;;;;;;3.23;2.10;;;5.80;53.50;;;;;;5031139;28;20288;-71
2023/12/26 03:14:46;;;;;;;3.17;2.83;;;5.90;53.20;;;;;;5033604;28;20207;-71
2023/12/26 03:17:13;;;;;;;2.70;2.50;;;5.90;52.90;;;;;;5033888;28;20201;-70
2023/12/26 03:19:40;;;;;;;3.03;2.83;;;5.90;52.90;;;;;;5034191;28;20211;-70
2023/12/26 03:22:06;;;;;;;2.80;2.50;;;5.80;53.30;;;;;;5030090;28;20294;-71
2023/12/26 03:24:33;;;;;;;2.90;2.70;;;5.80;53.10;;;;;;5024165;28;20287;-70
2023/12/26 03:27:01;;;;;;;3.13;2.80;;;5.80;52.90;;;;;;5025606;28;20652;-70
2023/12/26 03:29:27;;;;;;;4.00;2.93;;;5.80;53.10;;;;;;5026481;28;20618;-71
2023/12/26 03:31:54;;;;;;;2.67;2.40;;;5.80;52.80;;;;;;5032442;28;20651;-70
2023/12/26 03:34:21;;;;;;;2.67;2.47;;;5.80;52.70;;;;;;5034305;28;20258;-70
2023/12/26 03:36:48;;;;;;;3.17;2.33;;;5.70;52.80;;;;;;5033370;28;20230;-71
2023/12/26 03:39:15;;;;;;;4.23;2.83;;;5.80;52.90;;;;;;5032190;28;20310;-71
2023/12/26 03:41:44;;;;;;;3.40;2.40;;;5.80;52.90;;;;;;5030986;28;20216;-72
2023/12/26 03:44:10;;;;;;;2.63;2.43;;;5.80;52.80;;;;;;5032243;28;20225;-70
2023/12/26 03:46:37;;;;;;;3.07;2.47;;;5.80;53.00;;;;;;5033480;28;20282;-70
2023/12/26 03:49:03;;;;;;;2.60;2.40;;;5.70;53.00;;;;;;5033504;28;20258;-73
2023/12/26 03:51:30;;;;;;;4.47;3.37;;;5.70;53.20;;;;;;5033357;28;20294;-69
2023/12/26 03:53:56;;;;;;;2.80;2.60;;;5.60;53.10;;;;;;5031874;28;20267;-70
2023/12/26 03:56:23;;;;;;;3.10;2.80;;;5.50;53.30;;;;;;5031684;28;20296;-71
2023/12/26 03:58:49;;;;;;;3.23;2.70;;;5.60;53.50;;;;;;5033325;28;20211;-70
2023/12/26 04:01:16;;;;;;;2.93;2.70;;;5.60;53.30;;;;;;5033902;28;20206;-72
2023/12/26 04:03:43;;;;;;;4.93;2.63;;;5.60;53.10;;;;;;5032118;28;20601;-70
2023/12/26 04:06:09;;;;;;;3.97;2.50;;;5.60;52.80;;;;;;5035610;28;20262;-70
2023/12/26 04:08:36;;;;;;;3.30;3.00;;;5.50;52.90;;;;;;5024502;28;20734;-70
2023/12/26 04:11:02;;;;;;;2.93;2.73;;;5.60;52.90;;;;;;5034845;28;20246;-71
2023/12/26 04:13:29;;;;;;;2.80;2.60;;;5.50;53.00;;;;;;5032209;28;20629;-71
2023/12/26 04:15:56;;;;;;;2.93;2.67;;;5.50;52.50;;;;;;5031811;28;20227;-70
2023/12/26 04:18:22;;;;;;;2.60;2.50;;;5.50;52.70;;;;;;5032618;28;20297;-70
2023/12/26 04:20:49;;;;;;;2.67;2.40;;;5.50;52.80;;;;;;5032907;28;20257;-72
2023/12/26 04:23:15;;;;;;;5.10;2.70;;;5.50;52.70;;;;;;5031882;28;20357;-70
2023/12/26 04:25:42;;;;;;;2.50;2.30;;;5.60;52.60;;;;;;5031856;28;20272;-70
2023/12/26 04:28:08;;;;;;;3.00;2.70;;;5.60;52.70;;;;;;5032660;28;20215;-70
2023/12/26 04:30:35;;;;;;;2.60;2.40;;;5.50;52.60;;;;;;5030706;28;20260;-70
2023/12/26 04:33:02;;;;;;;2.50;2.30;;;5.50;52.30;;;;;;5031766;28;20210;-71
2023/12/26 04:35:28;;;;;;;2.60;2.40;;;5.60;52.10;;;;;;5027403;28;20652;-70
2023/12/26 04:37:55;;;;;;;3.23;2.40;;;5.60;51.70;;;;;;5027954;28;20272;-71
2023/12/26 04:40:22;;;;;;;3.53;2.50;;;5.60;51.20;;;;;;5021918;28;20206;-75
2023/12/26 04:42:48;;;;;;;2.40;2.30;;;5.60;50.90;;;;;;5030007;28;20701;-70
2023/12/26 04:45:15;;;;;;;2.97;2.67;;;5.60;50.80;;;;;;5031391;28;20268;-71
2023/12/26 04:47:41;;;;;;;2.63;2.43;;;5.60;51.00;;;;;;5031658;28;20215;-70
2023/12/26 04:50:08;;;;;;;2.37;2.17;;;5.80;50.30;;;;;;5018757;28;20231;-70
2023/12/26 04:52:34;;;;;;;3.43;2.20;;;5.90;49.70;;;;;;5030455;28;20210;-71
2023/12/26 04:55:01;;;;;;;2.63;2.30;;;6.10;48.50;;;;;;5031572;28;20610;-70
2023/12/26 04:57:28;;;;;;;2.40;2.20;;;6.40;47.10;;;;;;5031988;28;20207;-70
2023/12/26 04:59:54;;;;;;;2.40;2.07;;;6.40;47.00;;;;;;5031825;28;20203;-70
2023/12/26 05:02:21;;;;;;;2.73;2.20;;;6.60;45.50;;;;;;5030284;28;20311;-71
2023/12/26 05:04:47;;;;;;;2.40;2.20;;;6.80;44.90;;;;;;5029463;28;20645;-70
2023/12/26 05:07:14;;;;;;;2.60;1.90;;;6.90;43.70;;;;;;5028763;28;20264;-70
2023/12/26 05:09:40;;;;;;;2.20;2.00;;;7.10;43.10;;;;;;5030266;28;20211;-70
2023/12/26 05:12:07;;;;;;;2.33;2.13;;;7.10;43.20;;;;;;5031053;28;20264;-73
2023/12/26 05:14:33;;;;;;;2.10;2.00;;;7.30;42.00;;;;;;5031861;28;20260;-72
2023/12/26 05:16:59;;;;;;;2.40;2.20;;;7.30;42.10;;;;;;5028178;28;20207;-70
2023/12/26 05:19:26;;;;;;;3.97;2.20;;;7.30;41.80;;;;;;5022535;28;20274;-71
2023/12/26 05:21:52;;;;;;;2.87;2.10;;;7.40;41.80;;;;;;5029373;28;20217;-70
2023/12/26 05:24:19;;;;;;;2.80;2.23;;;7.40;41.80;;;;;;5029799;28;20282;-70
2023/12/26 05:26:45;;;;;;;3.63;2.70;;;7.40;42.10;;;;;;5031028;28;20285;-70
2023/12/26 05:29:12;;;;;;;2.10;2.00;;;7.40;42.20;;;;;;5023558;28;20266;-73
2023/12/26 05:31:39;;;;;;;2.30;2.10;;;7.40;41.90;;;;;;5031575;28;20249;-70
2023/12/26 05:34:05;;;;;;;2.10;1.97;;;7.40;42.90;;;;;;5031961;28;20291;-70
2023/12/26 05:36:32;;;;;;;2.73;2.53;;;7.40;42.80;;;;;;5035118;28;20228;-71
2023/12/26 05:38:58;;;;;;;5.43;2.17;;;7.30;42.50;;;;;;5039538;28;20348;-72
2023/12/26 05:41:25;;;;;;;2.23;2.13;;;7.30;42.90;;;;;;5035530;28;20208;-71
2023/12/26 05:43:52;;;;;;;2.17;1.97;;;7.30;43.20;;;;;;5031327;28;20279;-69
2023/12/26 05:46:20;;;;;;;2.40;2.20;;;7.30;43.20;;;;;;5031446;28;20279;-70
2023/12/26 05:48:47;;;;;;;2.07;1.90;;;7.30;43.30;;;;;;5031378;28;20271;-73
2023/12/26 05:51:13;;;;;;;2.17;1.90;;;7.30;43.20;;;;;;5033789;28;20205;-71
2023/12/26 05:53:40;;;;;;;2.10;1.80;;;7.30;43.70;;;;;;5033717;28;20255;-70
2023/12/26 05:56:06;;;;;;;2.33;1.80;;;7.20;43.60;;;;;;5029674;28;20236;-71
2023/12/26 05:58:33;;;;;;;2.57;2.20;;;7.20;43.70;;;;;;5030867;28;20212;-70
2023/12/26 06:01:01;;;;;;;2.83;2.67;;;7.20;43.70;;;;;;5030573;28;20267;-70
2023/12/26 06:03:28;;;;;;;2.30;1.83;;;7.20;44.10;;;;;;5032852;28;20729;-70
2023/12/26 06:05:55;;;;;;;2.10;2.00;;;7.30;44.20;;;;;;5035583;28;20285;-70
2023/12/26 06:08:21;;;;;;;2.13;1.87;;;7.30;44.40;;;;;;5035945;28;20220;-70
2023/12/26 06:10:48;;;;;;;2.20;2.00;;;7.30;44.50;;;;;;5036772;28;20208;-73
2023/12/26 06:13:14;;;;;;;2.97;2.10;;;7.30;44.80;;;;;;5036850;28;20595;-71
2023/12/26 06:15:41;;;;;;;2.30;1.90;;;7.30;44.80;;;;;;5037538;28;20282;-70
2023/12/26 06:18:07;;;;;;;2.40;2.27;;;7.20;45.10;;;;;;5037055;28;20679;-70
2023/12/26 06:20:34;;;;;;;2.40;2.13;;;7.20;45.20;;;;;;5037511;28;20216;-70
2023/12/26 06:23:00;;;;;;;2.30;2.10;;;7.20;45.50;;;;;;5037323;28;20761;-71
2023/12/26 06:25:27;;;;;;;2.80;2.50;;;7.20;45.70;;;;;;5037016;28;20235;-70
2023/12/26 06:27:54;;;;;;;2.10;2.00;;;7.10;46.00;;;;;;5037478;28;20637;-70
2023/12/26 06:30:20;;;;;;;2.30;2.10;;;7.20;46.30;;;;;;5034597;28;20220;-70
2023/12/26 06:32:47;;;;;;;3.47;2.20;;;7.10;46.40;;;;;;5037017;28;20262;-72
2023/12/26 06:35:13;;;;;;;4.63;2.40;;;7.10;46.50;;;;;;5037009;28;20649;-70
2023/12/26 06:37:40;;;;;;;3.47;2.20;;;7.10;47.00;;;;;;5031992;28;20205;-70
2023/12/26 06:40:06;;;;;;;2.17;2.07;;;7.00;47.10;;;;;;5039470;28;20216;-69
2023/12/26 06:42:33;;;;;;;2.83;2.10;;;7.00;47.10;;;;;;5036712;28;20217;-73
2023/12/26 06:45:00;;;;;;;2.47;2.27;;;6.90;47.40;;;;;;5034579;28;20289;-70
2023/12/26 06:47:26;;;;;;;2.33;2.13;;;6.90;48.10;;;;;;5035217;28;20248;-70
2023/12/26 06:49:53;;;;;;;2.13;2.03;;;6.90;47.70;;;;;;5036061;28;20266;-69
2023/12/26 06:52:20;;;;;;;3.13;2.13;;;6.90;47.70;;;;;;5035593;28;20228;-71
2023/12/26 06:54:46;;;;;;;3.30;2.50;;;6.90;47.80;;;;;;5036448;28;20200;-71
2023/12/26 06:57:16;;;;;;;2.40;2.20;;;6.90;47.60;;;;;;5030492;28;20204;-70
2023/12/26 06:59:42;;;;;;;1.90;1.80;;;6.80;48.00;;;;;;5034217;28;20291;-70
2023/12/26 07:02:09;;;;;;;4.17;2.63;;;6.80;48.40;;;;;;5034604;28;20612;-70
2023/12/26 07:04:36;;;;;;;2.20;2.00;;;6.80;48.80;;;;;;5036722;28;20233;-69
2023/12/26 07:07:02;;;;;;;2.43;2.23;;;6.70;48.80;;;;;;5034785;28;20262;-72
2023/12/26 07:09:29;;;;;;;2.40;2.20;;;6.80;48.80;;;;;;5037359;28;20205;-72
2023/12/26 07:11:55;;;;;;;2.70;2.30;;;6.70;48.90;;;;;;5030350;28;20216;-70
2023/12/26 07:14:22;;;;;;;3.57;2.93;;;6.80;49.00;;;;;;5034807;28;20635;-70
2023/12/26 07:16:49;;;;;;;2.43;2.23;;;6.70;49.00;;;;;;5030311;28;20233;-73
2023/12/26 07:19:15;;;;;;;2.20;2.10;;;6.80;49.20;;;;;;5034136;28;20263;-71
2023/12/26 07:21:42;;;;;;;2.73;2.13;;;6.70;49.30;;;;;;5032659;28;20220;-70
2023/12/26 07:24:08;;;;;;;2.57;2.37;;;6.80;49.50;;;;;;5033577;28;20614;-70
2023/12/26 07:26:35;;;;;;;2.37;2.17;;;6.70;49.60;;;;;;5032843;28;20231;-70
2023/12/26 07:29:02;;;;;;;2.50;2.30;;;6.80;49.90;;;;;;5032522;28;20250;-70
2023/12/26 07:31:28;;;;;;;2.20;2.10;;;6.80;49.40;;;;;;5033977;28;20259;-70
2023/12/26 07:33:55;;;;;;;2.33;2.10;;;6.80;49.70;;;;;;5033387;28;20671;-69
2023/12/26 07:36:22;;;;;;;2.50;2.30;;;6.80;49.70;;;;;;5033017;28;20550;-73
2023/12/26 07:38:49;;;;;;;2.50;2.30;;;6.80;49.70;;;;;;5030041;28;20213;-70
2023/12/26 07:41:15;;;;;;;2.43;2.23;;;6.80;49.70;;;;;;5032947;28;20710;-74
2023/12/26 07:43:43;;;;;;;3.13;2.27;;;6.90;50.10;;;;;;5032075;28;20656;-69
2023/12/26 07:46:10;;;;;;;3.33;2.40;;;6.90;49.80;;;;;;5032667;28;20217;-70
2023/12/26 07:48:37;;;;;;;2.83;2.37;;;6.90;49.80;;;;;;5031901;28;20208;-72
2023/12/26 07:51:04;;;;;;;3.57;2.47;;;6.90;49.90;;;;;;5033529;28;20239;-70
2023/12/26 07:53:30;;;;;;;4.37;2.47;;;6.90;50.10;;;;;;5033596;28;20246;-70
2023/12/26 07:55:57;;;;;;;2.07;1.97;;;6.90;50.20;;;;;;5026304;28;20650;-70
2023/12/26 07:58:24;;;;;;;4.40;2.30;;;7.00;50.00;;;;;;5023767;28;20227;-70
2023/12/26 08:00:50;;;;;;;3.33;2.50;;;7.00;50.20;;;;;;5022379;28;20212;-70
2023/12/26 08:03:17;;;;;;;2.97;2.77;;;7.00;50.10;;;;;;5032759;28;20287;-69
2023/12/26 08:05:43;;;;;;;2.73;2.20;;;7.10;50.30;;;;;;5024535;28;20230;-71
2023/12/26 08:08:10;;;;;;;2.00;1.90;;;7.20;50.00;;;;;;5031585;28;20272;-70
2023/12/26 08:10:36;;;;;;;3.47;2.33;;;7.30;49.70;;;;;;5031459;28;20206;-70
2023/12/26 08:13:04;;;;;;;2.73;2.30;;;7.30;49.50;;;;;;5028837;28;20272;-71
2023/12/26 08:15:31;;;;;;;2.57;2.10;;;7.30;49.40;;;;;;5031327;28;20225;-70
2023/12/26 08:17:57;;;;;;;2.57;2.10;;;7.30;49.60;;;;;;5033224;28;20245;-69
2023/12/26 08:20:24;;;;;;;2.20;2.10;;;7.40;49.20;;;;;;5030309;28;20209;-69
2023/12/26 08:22:52;;;;;;;3.10;2.50;;;7.40;48.90;;;;;;5026080;28;20206;-70
2023/12/26 08:25:19;;;;;;;3.83;1.90;;;7.40;49.00;;;;;;5024091;28;20240;-70
2023/12/26 08:27:45;;;;;;;2.77;2.27;;;7.50;49.40;;;;;;5029635;28;20213;-69
2023/12/26 08:30:12;;;;;;;4.00;2.53;;;7.60;48.80;;;;;;5023685;28;20214;-70
2023/12/26 08:32:39;;;;;;;2.50;2.13;;;7.60;48.70;;;;;;5028403;28;20209;-70
2023/12/26 08:35:05;;;;;;;4.23;2.20;;;7.70;48.70;;;;;;5028684;28;20229;-70
2023/12/26 08:37:32;;;;;;;2.67;2.07;;;7.90;48.20;;;;;;5029090;28;20262;-69
2023/12/26 08:39:58;;;;;;;4.03;2.40;;;8.40;46.80;;;;;;5023969;28;20208;-69
2023/12/26 08:42:25;;;;;;;2.40;2.17;;;8.90;45.60;;;;;;5027550;28;20670;-72
2023/12/26 08:44:51;;;;;;;201.57;117.30;;;9.10;44.80;;;;;;5021542;28;20263;-69
2023/12/26 08:47:18;;;;;;;8.63;6.83;;;9.30;45.60;;;;;;5026673;28;20209;-70
2023/12/26 08:49:45;;;;;;;3.33;2.40;;;9.20;44.80;;;;;;5028871;28;20270;-69
2023/12/26 08:52:13;;;;;;;2.50;2.00;;;9.10;44.70;;;;;;5024714;28;20219;-72
2023/12/26 08:54:39;;;;;;;3.13;2.20;;;8.80;45.20;;;;;;5028394;28;20196;-74
2023/12/26 08:57:06;;;;;;;2.20;2.00;;;8.60;45.90;;;;;;5035408;28;20204;-71
2023/12/26 08:59:32;;;;;;;1.90;1.80;;;8.60;46.30;;;;;;5026970;28;20210;-71
2023/12/26 09:01:59;;;;;;;2.83;2.07;;;8.60;47.10;;;;;;5028623;28;20203;-72
2023/12/26 09:04:26;;;;;;;2.30;2.10;;;8.60;46.00;;;;;;5028149;28;20223;-74
2023/12/26 09:06:52;;;;;;;2.30;2.10;;;8.60;46.50;;;;;;5029094;28;20227;-72
2023/12/26 09:09:19;;;;;;;3.23;2.10;;;8.60;46.40;;;;;;5023197;28;20232;-72
2023/12/26 09:11:46;;;;;;;2.00;1.80;;;8.70;46.30;;;;;;5026828;28;20299;-73
2023/12/26 09:14:13;;;;;;;2.30;2.10;;;8.70;45.30;;;;;;5024191;28;20815;-70
2023/12/26 09:16:40;;;;;;;2.80;2.60;;;8.70;45.60;;;;;;5029501;28;20226;-72
2023/12/26 09:19:08;;;;;;;47.93;30.33;;;8.70;45.50;;;;;;5031808;28;20217;-75
2023/12/26 09:21:34;;;;;;;14.23;11.00;;;8.90;46.30;;;;;;5014163;28;20259;-75
2023/12/26 09:24:01;;;;;;;2.37;2.07;;;9.00;45.90;;;;;;5028712;28;20240;-76
2023/12/26 09:26:27;;;;;;;2.03;1.90;;;9.00;45.40;;;;;;5025022;28;20231;-74
2023/12/26 09:28:54;;;;;;;1.80;1.70;;;9.00;44.90;;;;;;5030766;28;20269;-70
2023/12/26 09:31:21;;;;;;;2.53;2.10;;;8.90;45.10;;;;;;5031646;28;20260;-74
2023/12/26 09:33:53;;;;;;;6.13;2.27;;;9.00;45.50;;;;;;5026445;28;20202;-73
2023/12/26 09:36:20;;;;;;;3.13;2.33;;;9.10;45.10;;;;;;5034164;28;20237;-70
2023/12/26 09:38:47;;;;;;;3.03;2.00;;;9.10;44.70;;;;;;5029908;28;20203;-71
2023/12/26 09:41:13;;;;;;;2.80;2.43;;;9.40;45.00;;;;;;5026692;28;20265;-70
2023/12/26 09:43:40;;;;;;;3.03;2.10;;;9.50;43.80;;;;;;5017540;28;20287;-70
2023/12/26 09:46:07;;;;;;;2.93;2.07;;;9.60;44.10;;;;;;5022781;28;20262;-70
2023/12/26 09:48:34;;;;;;;2.23;2.00;;;9.40;44.00;;;;;;5024452;28;20677;-70
2023/12/26 09:51:00;;;;;;;1.87;1.77;;;9.50;44.00;;;;;;5026849;28;20228;-70
2023/12/26 09:53:27;;;;;;;2.83;2.20;;;9.60;43.00;;;;;;5029070;28;20670;-70
2023/12/26 09:55:53;;;;;;;4.20;2.40;;;9.80;43.30;;;;;;5026087;28;20293;-69
2023/12/26 09:58:20;;;;;;;2.00;1.90;;;9.90;42.70;;;;;;5027880;28;20213;-71
2023/12/26 10:00:47;;;;;;;2.47;2.27;;;9.90;42.60;;;;;;5024569;28;20283;-72
2023/12/26 10:03:13;;;;;;;2.20;2.03;;;9.90;42.30;;;;;;5031217;28;20630;-70
2023/12/26 10:05:40;;;;;;;2.93;2.20;;;9.90;43.10;;;;;;5029952;28;20223;-70
2023/12/26 10:08:06;;;;;;;2.10;1.90;;;9.90;42.20;;;;;;5023335;28;20208;-70
2023/12/26 10:10:33;;;;;;;3.20;1.70;;;10.00;41.30;;;;;;5023006;28;20206;-72
2023/12/26 10:13:00;;;;;;;2.27;2.07;;;9.90;41.80;;;;;;5028998;28;20208;-71
2023/12/26 10:15:26;;;;;;;2.70;2.03;;;10.00;41.10;;;;;;5028241;28;20225;-70
2023/12/26 10:17:53;;;;;;;1.90;1.80;;;10.00;40.00;;;;;;5030186;28;20209;-71
2023/12/26 10:20:20;;;;;;;2.20;2.00;;;10.10;40.00;;;;;;5033096;28;20207;-70
2023/12/26 10:22:46;;;;;;;2.17;1.90;;;10.20;40.10;;;;;;5028894;28;20296;-71
2023/12/26 10:25:13;;;;;;;2.13;1.97;;;10.20;39.80;;;;;;5028967;28;20275;-71
2023/12/26 10:27:40;;;;;;;2.40;2.20;;;10.30;39.20;;;;;;5026775;28;20643;-71
2023/12/26 10:30:06;;;;;;;3.93;2.00;;;10.30;39.20;;;;;;5029948;28;20213;-71
2023/12/26 10:32:33;;;;;;;2.07;1.97;;;10.30;39.20;;;;;;5030675;28;20220;-70
2023/12/26 10:35:00;;;;;;;2.10;1.83;;;10.30;38.70;;;;;;5028767;28;20283;-71
2023/12/26 10:37:26;;;;;;;2.33;2.10;;;10.40;39.10;;;;;;5029969;28;20220;-72
2023/12/26 10:39:53;;;;;;;2.17;1.90;;;10.30;38.50;;;;;;5030896;28;20214;-71
2023/12/26 10:42:19;;;;;;;2.17;1.90;;;10.30;38.40;;;;;;5026197;28;20222;-71
2023/12/26 10:44:52;;;;;;;1.90;1.80;;;10.20;38.50;;;;;;5025191;28;20284;-71
2023/12/26 10:47:19;;;;;;;2.57;1.97;;;10.10;38.20;;;;;;5029819;28;20224;-71
2023/12/26 10:49:46;;;;;;;2.10;1.90;;;10.00;38.70;;;;;;5029508;28;20217;-71
2023/12/26 10:52:13;;;;;;;1.80;1.70;;;10.00;38.90;;;;;;5030455;28;20259;-71
2023/12/26 10:54:39;;;;;;;2.50;2.20;;;10.00;38.90;;;;;;5024841;28;20238;-72
2023/12/26 10:57:06;;;;;;;2.10;1.97;;;9.90;40.30;;;;;;5030368;28;20208;-72
2023/12/26 13:51:58;;;;;;;3.67;2.20;;;10.10;42.30;;;;;;5027872;28;20219;-67
2023/12/26 13:54:23;;;;;;;2.50;1.73;;;10.00;42.10;;;;;;5029720;28;20227;-68
2023/12/26 13:56:50;;;;;;;5.10;2.50;;;10.10;42.60;;;;;;5028480;28;20270;-67
2023/12/26 13:59:16;;;;;;;1.90;1.80;;;10.00;42.70;;;;;;5029617;28;20205;-70
2023/12/26 14:01:43;;;;;;;2.10;1.80;;;10.00;42.80;;;;;;5023569;28;20576;-67
2023/12/26 14:04:09;;;;;;;4.50;2.87;;;9.90;43.80;;;;;;5025151;28;20208;-65
2023/12/26 14:06:36;;;;;;;41.80;24.97;;;10.10;43.70;;;;;;5026840;28;20228;-69
2023/12/26 14:09:03;;;;;;;2.57;2.20;;;10.40;44.40;;;;;;5027666;28;20219;-71
2023/12/26 14:11:30;;;;;;;2.27;2.00;;;10.20;43.40;;;;;;5026857;28;20281;-70
2023/12/26 14:13:57;;;;;;;2.47;2.10;;;10.10;43.60;;;;;;5028845;28;20220;-69
2023/12/26 14:16:23;;;;;;;2.10;2.00;;;10.10;43.50;;;;;;5029314;28;20227;-69
2023/12/26 14:18:50;;;;;;;3.53;1.73;;;10.10;43.30;;;;;;5029862;28;20219;-68
2023/12/26 14:21:17;;;;;;;2.17;1.97;;;10.00;43.60;;;;;;5030346;28;20602;-71
2023/12/26 14:23:43;;;;;;;2.70;2.20;;;10.00;43.90;;;;;;5027196;28;20216;-68
2023/12/26 14:26:10;;;;;;;3.80;2.03;;;10.00;43.80;;;;;;5026480;28;20703;-69
2023/12/26 14:28:36;;;;;;;3.23;2.10;;;9.90;44.90;;;;;;5033314;28;20199;-67
2023/12/26 14:31:03;;;;;;;3.13;2.00;;;9.80;45.20;;;;;;5033541;28;20203;-69
2023/12/26 14:33:29;;;;;;;2.27;2.07;;;9.80;45.30;;;;;;5030391;28;20211;-69
2023/12/26 14:35:56;;;;;;;1.90;1.80;;;9.80;45.30;;;;;;5029972;28;20220;-67
2023/12/26 14:38:23;;;;;;;3.20;2.10;;;9.80;45.30;;;;;;5032833;28;20225;-68
2023/12/26 14:40:49;;;;;;;2.17;1.97;;;9.70;45.20;;;;;;5040289;28;20345;-68
2023/12/26 14:43:16;;;;;;;3.23;2.10;;;9.70;44.90;;;;;;5031960;28;20233;-68
2023/12/26 14:45:43;;;;;;;2.07;1.97;;;9.70;45.20;;;;;;5013256;28;20614;-67
2023/12/26 14:48:09;;;;;;;2.10;1.90;;;9.70;44.40;;;;;;5029007;28;20249;-67
2023/12/26 14:50:36;;;;;;;2.00;1.90;;;9.70;44.50;;;;;;5028433;28;20218;-73
2023/12/26 14:53:04;;;;;;;236.80;145.80;;;9.70;44.30;;;;;;5032719;28;20208;-68
2023/12/26 14:55:31;;;;;;;12.07;9.03;;;9.80;44.30;;;;;;5031717;28;20228;-72
2023/12/26 14:57:58;;;;;;;2.53;2.27;;;9.80;44.10;;;;;;5031163;28;20221;-70
2023/12/26 15:00:24;;;;;;;3.10;2.30;;;9.70;44.40;;;;;;5030169;28;20689;-72
2023/12/26 15:02:51;;;;;;;2.23;2.03;;;9.70;44.30;;;;;;5028192;28;20270;-71
2023/12/26 15:05:18;;;;;;;3.03;2.37;;;9.80;43.60;;;;;;5012338;28;20320;-71
2023/12/26 15:07:44;;;;;;;3.07;2.80;;;9.80;44.80;;;;;;5026382;28;20280;-71
2023/12/26 15:10:11;;;;;;;2.10;1.90;;;9.80;43.60;;;;;;5033160;28;20306;-71
2023/12/26 15:12:38;;;;;;;2.17;1.90;;;9.80;43.30;;;;;;5036024;28;20261;-71
2023/12/26 15:15:05;;;;;;;3.87;1.90;;;9.80;43.60;;;;;;5029419;28;20273;-73
2023/12/26 15:17:31;;;;;;;3.22;1.98;;;9.80;43.60;;;;;;5029782;28;20857;-74
2023/12/26 15:19:58;;;;;;;3.10;2.17;;;9.80;43.60;;;;;;5030161;28;20200;-73
2023/12/26 15:22:25;;;;;;;2.67;2.00;;;9.80;43.40;;;;;;5032101;28;20586;-73
2023/12/26 15:24:51;;;;;;;2.30;1.83;;;9.80;43.60;;;;;;5031881;28;20773;-73
2023/12/26 15:27:19;;;;;;;2.30;1.90;;;9.80;43.60;;;;;;5010262;28;20261;-72
2023/12/26 15:29:45;;;;;;;2.47;2.03;;;9.80;43.60;;;;;;5024639;28;20261;-72
2023/12/26 15:32:12;;;;;;;3.30;2.20;;;9.80;44.20;;;;;;5016631;28;20216;-72
2023/12/26 15:34:39;;;;;;;3.97;2.13;;;9.80;43.60;;;;;;5030913;28;20204;-72
2023/12/26 15:37:05;;;;;;;2.53;1.90;;;9.70;43.60;;;;;;5027855;28;20207;-72
2023/12/26 15:39:32;;;;;;;3.17;2.03;;;9.70;44.50;;;;;;5026781;28;20218;-72
2023/12/26 15:41:58;;;;;;;3.20;2.30;;;9.70;43.60;;;;;;5025226;28;20219;-70
2023/12/26 15:44:25;;;;;;;3.20;2.10;;;9.70;43.60;;;;;;5031428;28;20234;-70